Time;durP1;ratioP1;P1;durP2;ratioP2;P2;SDS_P1;SDS_P2;PMS_P1;PMS_P2;Temp;Humidity;BMP_temperature;BMP_pressure;BME280_temperature;BME280_humidity;BME280_pressure;Samples;Min_cycle;Max_cycle;Signal;HPM_P1;HPM_P2
2021/07/13 00:01:23;;;;;;;19.25;12.77;;;;;;;;;;5070534;28;20025;-81
2021/07/13 00:03:51;;;;;;;23.17;12.60;;;;;;;;;;5072439;28;20044;-80
2021/07/13 00:06:17;;;;;;;27.60;13.82;;;;;;;;;;5070058;28;20447;-81
2021/07/13 00:08:43;;;;;;;18.00;12.98;;;;;;;;;;5071960;28;20037;-80
2021/07/13 00:11:09;;;;;;;24.75;12.57;;;;;;;;;;5072115;28;20086;-81
2021/07/13 00:13:35;;;;;;;17.10;12.35;;;;;;;;;;5069961;28;20044;-80
2021/07/13 00:16:01;;;;;;;24.30;12.23;;;;;;;;;;5071771;28;20082;-80
2021/07/13 00:18:27;;;;;;;20.20;13.75;;;;;;;;;;5072055;28;20058;-81
2021/07/13 00:20:53;;;;;;;33.75;12.55;;;;;;;;;;5071993;28;20017;-81
2021/07/13 00:23:19;;;;;;;21.00;12.75;;;;;;;;;;5071837;28;20059;-81
2021/07/13 00:25:45;;;;;;;22.80;12.30;;;;;;;;;;5071365;28;20375;-81
2021/07/13 00:28:11;;;;;;;18.13;12.00;;;;;;;;;;5071728;28;20040;-81
2021/07/13 00:30:37;;;;;;;18.70;12.57;;;;;;;;;;5071738;28;20031;-80
2021/07/13 00:33:03;;;;;;;23.02;12.85;;;;;;;;;;5071515;28;20028;-80
2021/07/13 00:35:29;;;;;;;21.98;12.55;;;;;;;;;;5071172;28;20040;-81
2021/07/13 00:37:55;;;;;;;20.98;12.95;;;;;;;;;;5070250;28;20025;-81
2021/07/13 00:40:21;;;;;;;20.67;12.88;;;;;;;;;;5071404;28;20509;-79
2021/07/13 00:42:49;;;;;;;23.55;13.35;;;;;;;;;;5071696;28;20020;-80
2021/07/13 00:45:15;;;;;;;21.70;13.27;;;;;;;;;;5069852;28;20102;-81
2021/07/13 00:47:41;;;;;;;22.23;13.80;;;;;;;;;;5071021;28;20036;-80
2021/07/13 00:50:08;;;;;;;26.40;13.45;;;;;;;;;;5071180;28;20020;-81
2021/07/13 00:52:34;;;;;;;21.02;13.60;;;;;;;;;;5069825;28;20028;-80
2021/07/13 00:55:01;;;;;;;24.30;13.68;;;;;;;;;;5069878;28;20546;-81
2021/07/13 00:57:27;;;;;;;;;;;;;;;;;;5071321;28;20036;-80
2021/07/13 00:59:53;;;;;;;22.73;13.63;;;;;;;;;;5069638;28;20239;-81
2021/07/13 01:02:19;;;;;;;25.98;13.27;;;;;;;;;;5070795;28;20068;-80
2021/07/13 01:04:47;;;;;;;20.33;14.02;;;;;;;;;;5069829;28;20025;-81
2021/07/13 01:07:32;;;;;;;21.80;14.18;;;;;;;;;;5070841;28;20041;-81
2021/07/13 01:10:14;;;;;;;28.00;13.88;;;;;;;;;;5069971;28;20031;-80
2021/07/13 01:12:46;;;;;;;28.77;14.02;;;;;;;;;;5069395;28;20032;-79
2021/07/13 01:15:15;;;;;;;20.38;13.82;;;;;;;;;;5070511;28;20542;-80
2021/07/13 01:17:44;;;;;;;26.55;13.85;;;;;;;;;;5069135;28;20386;-80
2021/07/13 01:20:23;;;;;;;23.13;14.07;;;;;;;;;;5070879;28;20099;-80
2021/07/13 01:22:50;;;;;;;24.95;14.00;;;;;;;;;;5070217;28;20044;-80
2021/07/13 01:25:16;;;;;;;22.60;14.73;;;;;;;;;;5070668;28;20025;-81
2021/07/13 01:27:50;;;;;;;21.83;14.07;;;;;;;;;;5070198;28;20033;-80
2021/07/13 01:30:22;;;;;;;22.65;15.00;;;;;;;;;;5052872;28;20032;-80
2021/07/13 01:32:49;;;;;;;21.67;14.15;;;;;;;;;;5070436;28;20023;-81
2021/07/13 01:35:34;;;;;;;19.60;15.15;;;;;;;;;;5069037;28;20383;-80
2021/07/13 01:38:00;;;;;;;22.48;13.63;;;;;;;;;;5070198;28;20056;-80
2021/07/13 01:40:27;;;;;;;22.47;14.80;;;;;;;;;;5070424;28;20036;-80
2021/07/13 01:42:53;;;;;;;28.63;15.15;;;;;;;;;;5070435;28;20662;-80
2021/07/13 01:45:19;;;;;;;23.40;14.40;;;;;;;;;;5069971;28;20031;-80
2021/07/13 01:47:46;;;;;;;19.45;14.55;;;;;;;;;;5070290;28;20044;-80
2021/07/13 01:50:13;;;;;;;28.17;15.35;;;;;;;;;;5070438;28;20025;-81
2021/07/13 01:52:40;;;;;;;21.33;15.20;;;;;;;;;;5070704;28;20029;-80
2021/07/13 01:55:06;;;;;;;27.92;16.38;;;;;;;;;;5070342;28;20032;-80
2021/07/13 01:57:33;;;;;;;27.20;17.48;;;;;;;;;;5069810;28;20399;-80
2021/07/13 02:00:00;;;;;;;25.07;16.07;;;;;;;;;;5068830;28;20028;-80
2021/07/13 02:02:27;;;;;;;27.77;16.67;;;;;;;;;;5070101;28;20327;-80
2021/07/13 02:04:55;;;;;;;24.48;16.67;;;;;;;;;;5068923;28;20154;-80
2021/07/13 02:07:21;;;;;;;27.20;15.10;;;;;;;;;;5069681;28;20037;-79
2021/07/13 02:09:47;;;;;;;24.35;16.40;;;;;;;;;;5070234;28;20031;-81
2021/07/13 02:12:14;;;;;;;23.85;15.98;;;;;;;;;;5070256;28;20025;-81
2021/07/13 02:14:40;;;;;;;27.45;15.98;;;;;;;;;;5069857;28;20522;-80
2021/07/13 02:17:06;;;;;;;28.95;16.00;;;;;;;;;;5068404;28;20033;-80
2021/07/13 02:19:33;;;;;;;23.63;15.02;;;;;;;;;;5069580;28;20021;-81
2021/07/13 02:21:59;;;;;;;21.83;15.53;;;;;;;;;;5070697;28;20161;-80
2021/07/13 02:24:25;;;;;;;24.15;15.95;;;;;;;;;;5074419;28;20104;-80
2021/07/13 02:26:52;;;;;;;21.73;15.48;;;;;;;;;;5073858;28;20043;-81
2021/07/13 02:29:18;;;;;;;;;;;;;;;;;;5073009;28;20352;-81
2021/07/13 02:31:45;;;;;;;23.30;15.23;;;;;;;;;;5072556;28;19912;-81
2021/07/13 02:34:15;;;;;;;24.67;15.60;;;;;;;;;;5073574;28;20033;-80
2021/07/13 02:36:46;;;;;;;28.15;16.40;;;;;;;;;;5072089;28;20039;-80
2021/07/13 02:39:12;;;;;;;25.48;15.07;;;;;;;;;;5072877;28;20395;-80
2021/07/13 02:41:42;;;;;;;28.38;16.40;;;;;;;;;;5072324;28;20025;-80
2021/07/13 02:44:09;;;;;;;33.40;15.32;;;;;;;;;;5073644;28;20100;-80
2021/07/13 02:46:41;;;;;;;;;;;;;;;;;;5074358;28;20364;-81
2021/07/13 02:49:09;;;;;;;24.30;15.45;;;;;;;;;;5073509;28;20007;-81
2021/07/13 02:51:35;;;;;;;22.55;15.43;;;;;;;;;;5072269;28;20029;-81
2021/07/13 02:54:02;;;;;;;26.98;14.68;;;;;;;;;;5071826;28;20053;-80
2021/07/13 02:56:28;;;;;;;20.20;15.23;;;;;;;;;;5073765;28;20032;-80
2021/07/13 02:58:58;;;;;;;25.43;16.50;;;;;;;;;;5073149;28;20036;-80
2021/07/13 03:01:24;;;;;;;24.05;14.43;;;;;;;;;;5071902;28;20545;-80
2021/07/13 03:03:51;;;;;;;20.63;15.50;;;;;;;;;;5071985;28;20033;-80
2021/07/13 03:06:17;;;;;;;26.97;16.67;;;;;;;;;;5071625;28;20278;-81
2021/07/13 03:08:43;;;;;;;27.10;16.23;;;;;;;;;;5072975;28;20279;-80
2021/07/13 03:11:09;;;;;;;22.50;14.97;;;;;;;;;;5073292;28;20104;-80
2021/07/13 03:13:36;;;;;;;24.40;16.20;;;;;;;;;;5073131;28;20554;-81
2021/07/13 03:16:02;;;;;;;24.87;15.87;;;;;;;;;;5073079;28;20028;-80
2021/07/13 03:18:29;;;;;;;23.13;16.33;;;;;;;;;;5072505;28;20279;-80
2021/07/13 03:20:55;;;;;;;;;;;;;;;;;;5073799;28;20119;-81
2021/07/13 03:23:22;;;;;;;31.00;16.50;;;;;;;;;;5072901;28;19915;-79
2021/07/13 03:25:49;;;;;;;28.08;17.02;;;;;;;;;;5073080;28;20032;-81
2021/07/13 03:28:15;;;;;;;25.10;16.90;;;;;;;;;;5071291;28;20036;-80
2021/07/13 03:30:42;;;;;;;23.63;16.40;;;;;;;;;;5072790;28;20062;-80
2021/07/13 03:33:10;;;;;;;24.02;17.63;;;;;;;;;;5070479;28;20020;-80
2021/07/13 03:35:36;;;;;;;25.15;17.23;;;;;;;;;;5073260;28;20043;-80
2021/07/13 03:38:03;;;;;;;25.75;17.88;;;;;;;;;;5070901;28;20039;-80
2021/07/13 03:40:29;;;;;;;28.80;17.38;;;;;;;;;;5072680;28;20036;-80
2021/07/13 03:42:56;;;;;;;31.35;18.10;;;;;;;;;;5071243;28;20017;-81
2021/07/13 03:45:25;;;;;;;29.83;18.90;;;;;;;;;;5072381;28;20043;-80
2021/07/13 03:47:52;;;;;;;28.77;17.02;;;;;;;;;;5070972;28;20028;-81
2021/07/13 03:50:18;;;;;;;;;;;;;;;;;;5071552;28;20421;-81
2021/07/13 03:52:44;;;;;;;31.93;17.77;;;;;;;;;;5071940;28;20362;-80
2021/07/13 03:55:10;;;;;;;27.30;16.92;;;;;;;;;;5072309;28;20032;-80
2021/07/13 03:57:36;;;;;;;32.33;17.67;;;;;;;;;;5071200;28;20020;-80
2021/07/13 04:00:04;;;;;;;31.42;17.17;;;;;;;;;;5072784;28;20055;-80
2021/07/13 04:02:30;;;;;;;27.00;17.02;;;;;;;;;;5072779;28;20545;-81
2021/07/13 04:04:55;;;;;;;25.40;17.35;;;;;;;;;;5071004;28;20115;-80
2021/07/13 04:07:21;;;;;;;25.10;15.88;;;;;;;;;;5070318;28;20390;-80
2021/07/13 04:09:47;;;;;;;22.88;16.25;;;;;;;;;;5071924;28;20441;-80
2021/07/13 04:12:13;;;;;;;23.70;15.07;;;;;;;;;;5072147;28;20036;-80
2021/07/13 04:14:39;;;;;;;31.50;16.52;;;;;;;;;;5070855;28;20040;-81
2021/07/13 04:17:05;;;;;;;30.63;16.85;;;;;;;;;;5071528;28;20450;-81
2021/07/13 04:19:31;;;;;;;27.15;16.33;;;;;;;;;;5071773;28;20118;-81
2021/07/13 04:21:57;;;;;;;22.48;14.30;;;;;;;;;;5071952;28;20479;-82
2021/07/13 04:24:23;;;;;;;22.85;13.00;;;;;;;;;;5070469;28;20035;-81
2021/07/13 04:26:49;;;;;;;19.83;12.73;;;;;;;;;;5071940;28;20097;-81
2021/07/13 04:29:15;;;;;;;18.13;11.88;;;;;;;;;;5071338;28;20048;-81
2021/07/13 04:31:41;;;;;;;17.17;11.57;;;;;;;;;;5072242;28;20085;-80
2021/07/13 04:34:10;;;;;;;14.60;10.98;;;;;;;;;;5071009;28;20040;-81
2021/07/13 04:36:36;;;;;;;16.70;11.07;;;;;;;;;;5071520;28;20032;-82
2021/07/13 04:39:03;;;;;;;16.05;11.05;;;;;;;;;;5069921;28;20037;-81
2021/07/13 04:41:29;;;;;;;19.45;10.82;;;;;;;;;;5072066;28;20039;-81
2021/07/13 04:43:55;;;;;;;25.25;10.70;;;;;;;;;;5071631;28;20024;-82
2021/07/13 04:46:21;;;;;;;19.42;10.93;;;;;;;;;;5072222;28;20080;-81
2021/07/13 04:48:47;;;;;;;16.25;11.80;;;;;;;;;;5072492;28;20304;-81
2021/07/13 04:51:14;;;;;;;19.92;11.70;;;;;;;;;;5070386;28;20075;-81
2021/07/13 04:53:41;;;;;;;18.00;11.20;;;;;;;;;;5070066;28;20070;-80
2021/07/13 04:56:07;;;;;;;13.38;11.05;;;;;;;;;;5071621;28;20021;-82
2021/07/13 04:58:33;;;;;;;15.25;11.20;;;;;;;;;;5069348;28;20468;-80
2021/07/13 05:00:59;;;;;;;16.17;10.40;;;;;;;;;;5071301;28;20012;-81
2021/07/13 05:03:25;;;;;;;18.50;11.20;;;;;;;;;;5070695;28;20053;-81
2021/07/13 05:05:51;;;;;;;20.80;10.65;;;;;;;;;;5071032;28;20021;-81
2021/07/13 05:08:18;;;;;;;17.20;10.80;;;;;;;;;;5069352;28;20036;-81
2021/07/13 05:10:44;;;;;;;13.23;10.65;;;;;;;;;;5070843;28;20041;-81
2021/07/13 05:13:11;;;;;;;17.75;11.43;;;;;;;;;;5070842;28;20040;-81
2021/07/13 05:15:39;;;;;;;16.27;11.93;;;;;;;;;;5069519;28;20081;-81
2021/07/13 05:18:06;;;;;;;18.45;12.57;;;;;;;;;;5070601;28;20572;-81
2021/07/13 05:20:32;;;;;;;22.55;11.95;;;;;;;;;;5070583;28;20098;-82
2021/07/13 05:22:59;;;;;;;20.27;12.00;;;;;;;;;;5070775;28;20024;-82
2021/07/13 05:25:25;;;;;;;27.48;13.18;;;;;;;;;;5069354;28;20032;-82
2021/07/13 05:27:51;;;;;;;19.05;13.70;;;;;;;;;;5070581;28;20112;-82
2021/07/13 05:30:18;;;;;;;17.95;12.95;;;;;;;;;;5069974;28;20376;-82
2021/07/13 05:32:45;;;;;;;17.15;13.05;;;;;;;;;;5070315;28;20028;-81
2021/07/13 05:35:12;;;;;;;20.08;13.18;;;;;;;;;;5069137;28;20440;-81
2021/07/13 05:37:38;;;;;;;20.00;12.93;;;;;;;;;;5070487;28;20024;-82
2021/07/13 05:40:05;;;;;;;18.95;12.85;;;;;;;;;;5069982;28;20032;-81
2021/07/13 05:42:31;;;;;;;17.90;12.70;;;;;;;;;;5068696;28;20042;-82
2021/07/13 05:44:57;;;;;;;26.55;12.95;;;;;;;;;;5070328;28;20446;-82
2021/07/13 05:47:23;;;;;;;18.88;11.82;;;;;;;;;;5070057;28;20317;-82
2021/07/13 05:49:49;;;;;;;15.07;10.27;;;;;;;;;;5069979;28;20094;-81
2021/07/13 05:52:15;;;;;;;15.85;9.88;;;;;;;;;;5071464;28;20070;-83
2021/07/13 05:54:41;;;;;;;17.30;10.23;;;;;;;;;;5072245;28;20079;-81
2021/07/13 05:57:07;;;;;;;12.88;8.40;;;;;;;;;;5068729;28;20047;-83
2021/07/13 05:59:33;;;;;;;17.77;7.93;;;;;;;;;;5070933;28;20490;-82
2021/07/13 06:01:59;;;;;;;16.17;7.35;;;;;;;;;;5071719;28;20056;-81
2021/07/13 06:04:25;;;;;;;12.35;7.25;;;;;;;;;;5070325;28;20104;-82
2021/07/13 06:06:51;;;;;;;9.50;6.50;;;;;;;;;;5068840;28;20031;-81
2021/07/13 06:09:17;;;;;;;18.15;6.90;;;;;;;;;;5070859;28;20024;-80
2021/07/13 06:11:43;;;;;;;14.60;7.00;;;;;;;;;;5069453;28;20482;-82
2021/07/13 06:14:08;;;;;;;15.60;7.13;;;;;;;;;;5070489;28;20059;-82
2021/07/13 06:16:34;;;;;;;18.52;7.13;;;;;;;;;;5070184;28;20104;-85
2021/07/13 06:19:00;;;;;;;17.17;7.03;;;;;;;;;;5068728;28;20533;-82
2021/07/13 06:21:26;;;;;;;13.48;7.32;;;;;;;;;;5070450;28;20035;-82
2021/07/13 06:23:52;;;;;;;11.95;6.35;;;;;;;;;;5070799;28;20050;-83
2021/07/13 06:26:18;;;;;;;13.63;7.05;;;;;;;;;;5070617;28;20520;-83
2021/07/13 06:28:44;;;;;;;13.35;7.70;;;;;;;;;;5069819;28;20078;-81
2021/07/13 06:31:10;;;;;;;19.63;8.27;;;;;;;;;;5070317;28;20037;-82
2021/07/13 06:33:39;;;;;;;13.93;7.55;;;;;;;;;;5069716;28;20115;-83
2021/07/13 06:36:05;;;;;;;13.18;9.25;;;;;;;;;;5070185;28;20070;-83
2021/07/13 06:38:31;;;;;;;18.95;8.93;;;;;;;;;;5070230;28;20024;-83
2021/07/13 06:40:57;;;;;;;11.40;8.27;;;;;;;;;;5068000;28;20028;-83
2021/07/13 06:43:23;;;;;;;16.23;7.57;;;;;;;;;;5068420;28;20032;-84
2021/07/13 06:45:49;;;;;;;14.63;7.38;;;;;;;;;;5068459;28;20024;-84
2021/07/13 06:48:15;;;;;;;16.42;9.82;;;;;;;;;;5069149;28;20024;-83
2021/07/13 06:50:41;;;;;;;16.02;8.75;;;;;;;;;;5070096;28;20502;-83
2021/07/13 06:53:07;;;;;;;18.05;9.70;;;;;;;;;;5068762;28;20028;-82
2021/07/13 06:55:33;;;;;;;15.75;8.63;;;;;;;;;;5068810;28;20052;-82
2021/07/13 06:57:59;;;;;;;12.82;9.15;;;;;;;;;;5068230;28;20413;-83
2021/07/13 07:00:25;;;;;;;16.80;9.40;;;;;;;;;;5068125;28;20545;-83
2021/07/13 07:02:51;;;;;;;20.10;10.40;;;;;;;;;;5069575;28;20051;-82
2021/07/13 07:05:17;;;;;;;16.90;9.45;;;;;;;;;;5069664;28;20024;-82
2021/07/13 07:07:44;;;;;;;13.50;9.50;;;;;;;;;;5070814;28;20028;-82
2021/07/13 07:10:10;;;;;;;16.88;9.85;;;;;;;;;;5073402;28;20434;-82
2021/07/13 07:12:36;;;;;;;16.50;9.88;;;;;;;;;;5073601;28;20047;-82
2021/07/13 07:15:02;;;;;;;17.33;10.05;;;;;;;;;;5071839;28;20032;-82
2021/07/13 07:17:28;;;;;;;20.23;11.05;;;;;;;;;;5073384;28;20155;-82
2021/07/13 07:19:56;;;;;;;16.52;9.70;;;;;;;;;;5073405;28;20020;-83
2021/07/13 07:22:22;;;;;;;13.35;9.55;;;;;;;;;;5073109;28;20062;-82
2021/07/13 07:24:48;;;;;;;13.23;9.70;;;;;;;;;;5072123;28;20467;-83
2021/07/13 07:27:14;;;;;;;23.30;10.52;;;;;;;;;;5073259;28;20350;-81
2021/07/13 07:29:40;;;;;;;16.45;9.30;;;;;;;;;;5072981;28;20122;-82
2021/07/13 07:32:06;;;;;;;19.13;10.30;;;;;;;;;;5072433;28;20041;-81
2021/07/13 07:34:32;;;;;;;18.55;9.95;;;;;;;;;;5072777;28;20029;-82
2021/07/13 07:36:58;;;;;;;17.00;8.45;;;;;;;;;;5072329;28;20103;-83
2021/07/13 07:39:24;;;;;;;17.95;9.63;;;;;;;;;;5073079;28;20494;-83
2021/07/13 07:41:52;;;;;;;16.85;9.07;;;;;;;;;;5073012;28;20090;-83
2021/07/13 07:44:19;;;;;;;17.27;9.90;;;;;;;;;;5073055;28;20082;-83
2021/07/13 07:46:45;;;;;;;17.38;10.00;;;;;;;;;;5073043;28;20382;-83
2021/07/13 07:49:11;;;;;;;13.43;8.20;;;;;;;;;;5071552;28;20024;-83
2021/07/13 07:51:37;;;;;;;26.55;12.10;;;;;;;;;;5070997;28;20074;-80
2021/07/13 07:54:03;;;;;;;19.58;12.02;;;;;;;;;;5070698;28;20413;-79
2021/07/13 07:56:29;;;;;;;23.60;12.25;;;;;;;;;;5070988;28;20414;-79
2021/07/13 07:58:55;;;;;;;20.48;12.20;;;;;;;;;;5072322;28;20696;-79
2021/07/13 08:01:21;;;;;;;17.02;12.05;;;;;;;;;;5071490;28;20203;-78
2021/07/13 08:03:47;;;;;;;21.35;12.68;;;;;;;;;;5070832;28;20470;-80
2021/07/13 08:06:13;;;;;;;21.50;14.25;;;;;;;;;;5072360;28;20032;-78
2021/07/13 08:08:39;;;;;;;22.65;13.00;;;;;;;;;;5070509;28;20032;-79
2021/07/13 08:11:05;;;;;;;18.08;13.75;;;;;;;;;;5071982;28;20025;-78
2021/07/13 08:13:31;;;;;;;19.92;13.45;;;;;;;;;;5069740;28;20033;-79
2021/07/13 08:15:57;;;;;;;25.23;14.57;;;;;;;;;;5072274;28;20031;-79
2021/07/13 08:18:23;;;;;;;19.60;13.97;;;;;;;;;;5072492;28;20027;-80
2021/07/13 08:20:50;;;;;;;20.98;12.88;;;;;;;;;;5071524;28;20017;-80
2021/07/13 08:23:16;;;;;;;24.23;12.82;;;;;;;;;;5069704;28;20501;-80
2021/07/13 08:25:42;;;;;;;20.48;11.05;;;;;;;;;;5071773;28;20024;-78
2021/07/13 08:28:08;;;;;;;18.20;11.15;;;;;;;;;;5073490;28;20027;-80
2021/07/13 08:30:34;;;;;;;17.08;11.00;;;;;;;;;;5083919;28;20112;-79
2021/07/13 08:33:00;;;;;;;15.82;9.93;;;;;;;;;;5070683;28;20426;-80
2021/07/13 08:35:26;;;;;;;14.65;9.63;;;;;;;;;;5071895;28;20423;-81
2021/07/13 08:37:52;;;;;;;13.73;7.32;;;;;;;;;;5069781;28;20059;-80
2021/07/13 08:40:19;;;;;;;15.18;6.47;;;;;;;;;;5071451;28;20024;-81
2021/07/13 08:42:45;;;;;;;17.27;5.97;;;;;;;;;;5071160;28;20071;-80
2021/07/13 08:45:12;;;;;;;11.68;6.43;;;;;;;;;;5071321;28;20068;-80
2021/07/13 08:47:39;;;;;;;9.48;5.25;;;;;;;;;;5069670;28;20024;-80
2021/07/13 08:50:06;;;;;;;11.75;5.40;;;;;;;;;;5071263;28;20028;-79
2021/07/13 08:52:33;;;;;;;11.13;5.80;;;;;;;;;;5071001;28;20111;-80
2021/07/13 08:54:59;;;;;;;16.10;6.67;;;;;;;;;;5070130;28;20029;-81
2021/07/13 08:57:25;;;;;;;8.38;5.85;;;;;;;;;;5070600;28;20320;-80
2021/07/13 08:59:51;;;;;;;10.88;6.03;;;;;;;;;;5069902;28;20070;-81
2021/07/13 09:02:17;;;;;;;9.25;5.95;;;;;;;;;;5069303;28;20140;-81
2021/07/13 09:04:43;;;;;;;14.05;7.25;;;;;;;;;;5069330;28;20120;-80
2021/07/13 09:07:09;;;;;;;13.38;7.15;;;;;;;;;;5070908;28;20122;-80
2021/07/13 09:09:36;;;;;;;11.27;7.38;;;;;;;;;;5071005;28;20036;-81
2021/07/13 09:12:06;;;;;;;15.60;8.05;;;;;;;;;;5070493;28;20385;-80
2021/07/13 09:14:47;;;;;;;14.27;8.65;;;;;;;;;;5070867;28;20484;-79
2021/07/13 09:17:32;;;;;;;20.08;9.90;;;;;;;;;;5071236;28;20107;-78
2021/07/13 09:20:07;;;;;;;18.95;10.85;;;;;;;;;;5070328;28;20028;-79
2021/07/13 09:22:33;;;;;;;19.02;10.25;;;;;;;;;;5070417;28;20062;-79
2021/07/13 09:24:59;;;;;;;16.17;9.90;;;;;;;;;;5070686;28;20138;-80
2021/07/13 09:27:25;;;;;;;16.10;9.95;;;;;;;;;;5069151;28;20460;-80
2021/07/13 09:29:52;;;;;;;16.42;10.02;;;;;;;;;;5070080;28;20055;-80
2021/07/13 09:32:21;;;;;;;23.90;11.55;;;;;;;;;;5069428;28;20142;-78
2021/07/13 09:34:58;;;;;;;15.43;10.85;;;;;;;;;;5069362;28;20035;-79
2021/07/13 09:37:24;;;;;;;;;;;;;;;;;;5070926;28;20024;-79
2021/07/13 09:39:56;;;;;;;18.48;11.27;;;;;;;;;;5069187;28;19987;-80
2021/07/13 09:42:26;;;;;;;18.67;10.95;;;;;;;;;;5068477;28;20040;-79
2021/07/13 09:44:52;;;;;;;20.00;10.90;;;;;;;;;;5070354;28;20044;-80
2021/07/13 09:47:30;;;;;;;19.23;10.63;;;;;;;;;;5070568;28;20067;-79
2021/07/13 09:49:58;;;;;;;16.13;9.77;;;;;;;;;;5068655;28;20069;-80
2021/07/13 09:52:25;;;;;;;20.83;10.18;;;;;;;;;;5069997;28;20047;-79
2021/07/13 09:54:51;;;;;;;17.23;9.90;;;;;;;;;;5068723;28;20039;-80
2021/07/13 09:57:18;;;;;;;21.23;9.77;;;;;;;;;;5070205;28;20078;-81
2021/07/13 09:59:45;;;;;;;15.27;9.20;;;;;;;;;;5068354;28;20105;-79
2021/07/13 10:02:11;;;;;;;13.68;7.90;;;;;;;;;;5070084;28;20190;-81
2021/07/13 10:04:38;;;;;;;10.80;7.55;;;;;;;;;;5068598;28;20044;-81
2021/07/13 10:07:05;;;;;;;13.10;7.60;;;;;;;;;;5070249;28;20035;-81
2021/07/13 10:09:33;;;;;;;12.95;7.65;;;;;;;;;;5068736;28;20426;-81
2021/07/13 10:11:59;;;;;;;11.23;7.28;;;;;;;;;;5070182;28;20040;-81
2021/07/13 10:14:25;;;;;;;13.80;8.15;;;;;;;;;;5070074;28;20040;-81
2021/07/13 10:16:52;;;;;;;12.02;7.00;;;;;;;;;;5070300;28;20052;-81
2021/07/13 10:19:18;;;;;;;14.68;8.30;;;;;;;;;;5069807;28;20352;-81
2021/07/13 10:21:46;;;;;;;16.65;7.13;;;;;;;;;;5068507;28;20028;-81
2021/07/13 10:24:12;;;;;;;11.70;7.88;;;;;;;;;;5069720;28;20070;-81
2021/07/13 10:26:49;;;;;;;11.35;7.18;;;;;;;;;;5070154;28;20075;-80
2021/07/13 10:29:30;;;;;;;14.55;7.75;;;;;;;;;;5070136;28;20475;-82
2021/07/13 10:31:56;;;;;;;12.20;7.40;;;;;;;;;;5069824;28;20107;-81
2021/07/13 10:34:41;;;;;;;13.00;7.10;;;;;;;;;;5069687;28;20051;-80
2021/07/13 10:37:26;;;;;;;13.10;6.57;;;;;;;;;;5070035;28;20020;-83
2021/07/13 10:39:54;;;;;;;14.73;7.28;;;;;;;;;;5070331;28;20071;-82
2021/07/13 10:42:38;;;;;;;13.40;6.70;;;;;;;;;;5070869;28;20122;-82
2021/07/13 10:45:31;;;;;;;14.73;7.28;;;;;;;;;;5073800;28;20052;-81
2021/07/13 10:48:04;;;;;;;10.38;7.35;;;;;;;;;;5070359;28;20347;-82
2021/07/13 10:50:30;;;;;;;11.63;6.57;;;;;;;;;;5074826;28;20036;-80
2021/07/13 10:52:58;;;;;;;13.23;7.47;;;;;;;;;;5073481;28;20087;-82
2021/07/13 10:55:30;;;;;;;12.45;7.53;;;;;;;;;;5073778;28;20028;-81
2021/07/13 10:58:11;;;;;;;16.98;7.13;;;;;;;;;;5072780;28;20017;-83
2021/07/13 11:03:28;;;;;;;16.75;7.63;;;;;;;;;;5075972;28;20178;-82
2021/07/13 11:05:54;;;;;;;15.52;7.15;;;;;;;;;;5072739;28;20135;-83
2021/07/13 11:08:44;;;;;;;13.77;7.50;;;;;;;;;;5073058;28;20028;-86
2021/07/13 11:11:19;;;;;;;14.93;6.88;;;;;;;;;;5073557;28;20051;-84
2021/07/13 11:13:53;;;;;;;15.05;7.18;;;;;;;;;;5072812;28;20028;-84
2021/07/13 11:16:23;;;;;;;15.02;7.32;;;;;;;;;;5073560;28;20025;-84
2021/07/13 11:18:50;;;;;;;12.15;6.78;;;;;;;;;;5072055;28;20020;-84
2021/07/13 11:21:23;;;;;;;15.20;6.35;;;;;;;;;;5071571;28;20060;-84
2021/07/13 11:23:50;;;;;;;15.85;7.25;;;;;;;;;;5073081;28;20067;-84
2021/07/13 11:26:17;;;;;;;12.52;6.95;;;;;;;;;;5073124;28;20113;-83
2021/07/13 11:28:54;;;;;;;11.43;7.05;;;;;;;;;;5071596;28;20082;-83
2021/07/13 11:31:21;;;;;;;17.23;7.70;;;;;;;;;;5071405;28;20028;-84
2021/07/13 11:33:53;;;;;;;10.18;7.18;;;;;;;;;;5071830;28;20036;-84
2021/07/13 11:36:33;;;;;;;10.95;7.00;;;;;;;;;;5073025;28;20115;-84
2021/07/13 11:39:01;;;;;;;12.48;5.93;;;;;;;;;;5072855;28;20107;-84
2021/07/13 11:41:27;;;;;;;14.25;6.40;;;;;;;;;;5073105;28;20176;-85
2021/07/13 11:43:54;;;;;;;10.85;5.90;;;;;;;;;;5072575;28;20064;-85
2021/07/13 11:46:21;;;;;;;12.95;5.85;;;;;;;;;;5072559;28;20041;-84
2021/07/13 11:48:57;;;;;;;12.05;5.80;;;;;;;;;;5072709;28;20439;-84
2021/07/13 11:51:32;;;;;;;13.35;6.35;;;;;;;;;;5072719;28;20063;-84
2021/07/13 11:53:59;;;;;;;11.55;5.57;;;;;;;;;;5069857;28;20111;-84
2021/07/13 11:56:28;;;;;;;;;;;;;;;;;;5072722;28;20036;-84
2021/07/13 11:58:54;;;;;;;10.07;5.45;;;;;;;;;;5072437;28;19908;-85
2021/07/13 12:01:21;;;;;;;10.00;5.55;;;;;;;;;;5071108;28;20059;-85
2021/07/13 12:03:48;;;;;;;12.50;6.03;;;;;;;;;;5070673;28;20051;-85
2021/07/13 12:06:16;;;;;;;12.10;6.18;;;;;;;;;;5071989;28;20032;-84
2021/07/13 12:08:42;;;;;;;12.27;5.63;;;;;;;;;;5071918;28;20064;-84
2021/07/13 12:11:09;;;;;;;10.73;5.30;;;;;;;;;;5072498;28;20502;-84
2021/07/13 12:13:37;;;;;;;12.77;5.60;;;;;;;;;;5071336;28;20028;-84
2021/07/13 12:16:16;;;;;;;15.20;5.47;;;;;;;;;;5071952;28;20494;-85
2021/07/13 12:18:43;;;;;;;13.35;5.57;;;;;;;;;;5070603;28;20027;-84
2021/07/13 12:21:13;;;;;;;8.13;5.32;;;;;;;;;;5070925;28;20471;-85
2021/07/13 12:23:39;;;;;;;10.32;5.30;;;;;;;;;;5072085;28;20439;-82
2021/07/13 12:26:21;;;;;;;10.25;5.32;;;;;;;;;;5072339;28;20078;-83
2021/07/13 12:28:59;;;;;;;10.93;5.28;;;;;;;;;;5070529;28;20024;-83
2021/07/13 12:31:25;;;;;;;13.82;5.45;;;;;;;;;;5070659;28;20024;-83
2021/07/13 12:33:51;;;;;;;10.18;5.57;;;;;;;;;;5071956;28;20025;-84
2021/07/13 12:36:28;;;;;;;9.70;5.70;;;;;;;;;;5070384;28;20041;-84
2021/07/13 12:38:54;;;;;;;21.05;5.40;;;;;;;;;;5071356;28;20077;-85
2021/07/13 12:41:21;;;;;;;8.85;5.60;;;;;;;;;;5072019;28;20025;-84
2021/07/13 12:43:47;;;;;;;10.13;4.80;;;;;;;;;;5070253;28;20039;-83
2021/07/13 12:46:26;;;;;;;13.40;4.75;;;;;;;;;;5071183;28;20040;-83
2021/07/13 12:48:53;;;;;;;15.25;5.53;;;;;;;;;;5071912;28;20024;-83
2021/07/13 12:51:24;;;;;;;12.60;5.75;;;;;;;;;;5071636;28;20024;-83
2021/07/13 12:54:07;;;;;;;8.20;5.65;;;;;;;;;;5070950;28;20021;-82
2021/07/13 12:56:34;;;;;;;13.07;6.55;;;;;;;;;;5069866;28;20048;-83
2021/07/13 12:59:10;;;;;;;12.90;5.70;;;;;;;;;;5069847;28;20023;-81
2021/07/13 13:01:36;;;;;;;;;;;;;;;;;;5071621;28;20036;-82
2021/07/13 13:04:15;;;;;;;12.98;6.32;;;;;;;;;;5071129;28;19916;-81
2021/07/13 13:06:43;;;;;;;10.38;6.10;;;;;;;;;;5070512;28;20033;-82
2021/07/13 13:09:16;;;;;;;18.10;7.13;;;;;;;;;;5071276;28;20115;-80
2021/07/13 13:11:42;;;;;;;16.42;6.30;;;;;;;;;;5071344;28;20036;-81
2021/07/13 13:14:12;;;;;;;13.93;6.28;;;;;;;;;;5071098;28;20100;-84
2021/07/13 13:16:39;;;;;;;18.38;6.40;;;;;;;;;;5069398;28;20072;-82
2021/07/13 13:19:06;;;;;;;14.02;6.47;;;;;;;;;;5070534;28;20021;-82
2021/07/13 13:21:32;;;;;;;9.20;5.75;;;;;;;;;;5070969;28;20032;-82
2021/07/13 13:24:03;;;;;;;11.27;5.90;;;;;;;;;;5069584;28;20043;-81
2021/07/13 13:26:29;;;;;;;13.05;5.90;;;;;;;;;;5070942;28;20044;-83
2021/07/13 13:28:55;;;;;;;12.38;5.65;;;;;;;;;;5070604;28;20025;-81
2021/07/13 13:31:23;;;;;;;17.70;5.90;;;;;;;;;;5069413;28;20330;-80
2021/07/13 13:33:53;;;;;;;19.75;6.35;;;;;;;;;;5070643;28;20382;-82
2021/07/13 13:36:27;;;;;;;9.50;5.95;;;;;;;;;;5070811;28;20493;-83
2021/07/13 13:39:02;;;;;;;15.13;6.40;;;;;;;;;;5069423;28;20420;-82
2021/07/13 13:41:28;;;;;;;11.23;6.57;;;;;;;;;;5070281;28;20597;-82
2021/07/13 13:43:54;;;;;;;10.88;5.63;;;;;;;;;;5071342;28;20105;-81
2021/07/13 13:46:21;;;;;;;;;;;;;;;;;;5069580;28;20029;-82
2021/07/13 13:48:47;;;;;;;11.75;5.55;;;;;;;;;;5070748;28;20508;-82
2021/07/13 13:51:13;;;;;;;13.80;5.85;;;;;;;;;;5070272;28;20029;-81
2021/07/13 13:53:40;;;;;;;11.13;5.65;;;;;;;;;;5071011;28;20096;-81
2021/07/13 13:56:07;;;;;;;10.65;5.90;;;;;;;;;;5069914;28;20020;-81
2021/07/13 13:58:33;;;;;;;10.20;5.60;;;;;;;;;;5070860;28;20025;-81
2021/07/13 14:00:59;;;;;;;;;;;;;;;;;;5069495;28;20109;-82
2021/07/13 14:03:25;;;;;;;9.32;5.55;;;;;;;;;;5069562;28;19970;-81
2021/07/13 14:05:51;;;;;;;15.43;5.80;;;;;;;;;;5070398;28;20020;-82
2021/07/13 14:08:18;;;;;;;12.60;5.95;;;;;;;;;;5068659;28;20393;-82
2021/07/13 14:10:44;;;;;;;13.63;5.65;;;;;;;;;;5070469;28;20029;-82
2021/07/13 14:13:10;;;;;;;12.40;5.65;;;;;;;;;;5070294;28;20074;-83
2021/07/13 14:15:35;;;;;;;;;;;;;;;;;;5070442;28;20040;-83
2021/07/13 14:18:01;;;;;;;15.02;5.70;;;;;;;;;;5069411;28;20315;-79
2021/07/13 14:20:27;;;;;;;11.25;5.70;;;;;;;;;;5070407;28;20108;-82
2021/07/13 14:22:54;;;;;;;16.27;5.50;;;;;;;;;;5070129;28;20222;-83
2021/07/13 14:25:20;;;;;;;10.98;5.45;;;;;;;;;;5069707;28;20429;-81
2021/07/13 14:27:46;;;;;;;19.05;5.65;;;;;;;;;;5069772;28;20447;-81
2021/07/13 14:30:14;;;;;;;15.65;5.25;;;;;;;;;;5070339;28;20028;-79
2021/07/13 14:32:40;;;;;;;11.80;5.47;;;;;;;;;;5070240;28;20435;-82
2021/07/13 14:35:06;;;;;;;15.50;5.38;;;;;;;;;;5070748;28;20056;-83